• Join FlightAware (Why Join?)
  • Login
  • US Flag 
12:13PM EDT


 

Airport Tracker/Info


-or-


 

Live Flight TrackerFlight Track Log ✈ EJA396 ✈ 13-May-2014 ✈ KDEN - KSLC

Flight Track Log - Related Links

Times and Time Zones

All times are in EDT time to prevent confusion due to time zone crossing. See the EJA396 flight status page for this flight to view local times or setup timezone preferences in your user account.

Time Position Orientation Groundspeed Altitude Reporting Facility
EDT Latitude Longitude Course Direction KTS MPH feet Rate Location/Type
10:20PM 39.8500 -104.7500 298° West 222 255 8,200  Level Denver TRACON
10:21PM 39.8833 -104.8333 298° West 281 323 10,200 2,280 Climbing Denver TRACON
10:22PM 39.9092 -104.9006 297° West 301 346 12,000 3,960 Climbing Denver Center
10:23PM 39.9489 -105.0144 294° West 346 398 16,900 4,200 Climbing Denver Center
10:24PM 39.9600 -105.1433 276° West 362 417 20,800 3,780 Climbing Denver Center
10:25PM 39.9644 -105.2908 272° West 373 429 24,700 3,180 Climbing Denver Center
10:26PM 39.9678 -105.4336 272° West 391 450 27,400 2,520 Climbing Denver Center
10:27PM 39.9711 -105.5792 272° West 400 460 29,900 2,400 Climbing Denver Center
10:28PM 39.9733 -105.7261 271° West 406 467 32,400 1,980 Climbing Denver Center
10:29PM 39.9717 -105.8747 269° West 408 470 34,000 780 Climbing Denver Center
10:30PM 39.9792 -106.0275 274° West 424 488 34,000  Level Denver Center
10:31PM 39.9886 -106.1789 275° West 423 487 34,000  Level Denver Center
10:32PM 39.9967 -106.3531 274° West 405 466 34,000  Level Denver Center
10:33PM 40.0044 -106.4947 274° West 397 457 34,000  Level Denver Center
10:34PM 40.0108 -106.6303 274° West 392 451 34,000  Level Denver Center
10:35PM 40.0194 -106.7856 274° West 385 443 34,000  Level Denver Center
10:36PM 40.0261 -106.9186 274° West 385 443 34,000  Level Denver Center
10:37PM 40.0317 -107.0506 273° West 384 442 34,000  Level Denver Center
10:38PM 40.0381 -107.2039 273° West 382 440 34,000  Level Denver Center
10:39PM 40.0444 -107.3358 274° West 382 440 34,000  Level Denver Center
10:40PM 40.0503 -107.4897 273° West 381 438 34,000  Level Denver Center
10:41PM 40.0561 -107.6208 273° West 381 438 34,000  Level Denver Center
10:42PM 40.0617 -107.7728 273° West 379 436 34,000  Level Denver Center
10:43PM 40.0669 -107.9014 273° West 375 432 34,000  Level Denver Center
10:44PM 40.0722 -108.0281 273° West 370 426 34,000  Level Denver Center
10:45PM 40.0794 -108.1767 274° West 368 423 34,000  Level Denver Center
10:46PM 40.0850 -108.3061 273° West 370 426 34,000  Level Denver Center
10:47PM 40.0911 -108.4572 273° West 373 429 34,000  Level Denver Center
10:48PM 40.0972 -108.5867 274° West 373 429 34,000  Level Denver Center
10:49PM 40.1039 -108.7386 273° West 374 430 34,000  Level Denver Center
10:50PM 40.1061 -108.8261 272° West 376 433 34,000  Level Salt Lake Center
10:51PM 40.1119 -108.9778 273° West 377 434 34,000  Level Salt Lake Center
10:52PM 40.1167 -109.1094 273° West 377 434 34,000  Level Salt Lake Center
10:53PM 40.1225 -109.2636 273° West 381 438 34,000 -300 Level Salt Lake Center
10:54PM 40.1258 -109.3961 272° West 381 438 33,400 -780 Descending Salt Lake Center
10:55PM 40.1311 -109.5350 273° West 396 456 32,500 -1,020 Descending Salt Lake Center
10:56PM 40.1367 -109.6992 273° West 402 463 31,400 -1,080 Descending Salt Lake Center
10:57PM 40.1414 -109.8400 273° West 405 466 30,400 -720 Descending Salt Lake Center
10:58PM 40.1453 -110.0031 272° West 405 466 30,000 -240 Descending Salt Lake Center
10:59PM 40.1486 -110.1403 272° West 399 459 30,000  Level Salt Lake Center
11:00PM 40.1478 -110.2758 270° West 394 453 30,000  Level Salt Lake Center
11:01PM 40.1453 -110.4372 269° West 396 456 30,000  Level Salt Lake Center
11:02PM 40.1447 -110.5786 270° West 401 461 30,000 -1,080 Level Salt Lake Center
11:03PM 40.1431 -110.7467 269° West 415 478 27,800 -2,220 Descending Salt Lake Center
11:05PM 40.1403 -110.8919 269° West 417 480 25,600 -2,100 Descending Salt Lake Center
11:06PM 40.1378 -111.0364 269° West 407 468 23,500 -2,040 Descending Salt Lake Center
11:07PM 40.1358 -111.1728 269° West 383 441 21,500 -1,980 Descending Salt Lake Center
11:08PM 40.1344 -111.3089 269° West 376 433 19,500 -1,740 Descending Salt Lake Center
11:09PM 40.1317 -111.4469 269° West 378 435 18,000 -1,860 Descending Salt Lake Center
11:09PM 40.1364 -111.5792 273° West 322 371 16,000 -1,500 Descending Salt Lake Center
11:10PM 40.1506 -111.6164 296° West 277 319 16,100 -540 Climbing Salt Lake Center
11:11PM 40.1817 -111.6850 301° West 292 336 15,400 -1,200 Descending Salt Lake Center
11:11PM 40.2050 -111.7269 306° West 283 326 14,700 -1,560 Descending Salt Lake Center
11:12PM 40.2350 -111.7564 323° Northwest 275 316 13,800 -1,560 Descending Salt Lake Center
11:12PM 40.2494 -111.7878 301° West 262 302 13,300 -1,380 Descending Salt Lake Center
11:13PM 40.2842 -111.8231 322° Northwest 252 290 12,400 -1,320 Descending Salt Lake Center
11:13PM 40.2992 -111.8525 304° West 247 284 12,000 -420 Descending Salt Lake Center
11:14PM 40.3317 -111.8831 324° Northwest 235 270 12,000 -420 Level Salt Lake Center
11:14PM 40.3475 -111.9122 305° West 239 275 11,600 -1,020 Descending Salt Lake Center
11:15PM 40.3908 -111.9203 352° North 239 275 11,000 -900 Descending Salt Lake Center
11:15PM 40.4108 -111.9272 345° North 239 275 10,700 -900 Descending Salt Lake Center
11:16PM 40.4575 -111.9261 North 240 276 10,100 -780 Descending Salt Lake Center
11:16PM 40.4725 -111.9344 337° Northwest 238 274 10,000 -1,020 Descending Salt Lake Center
11:17PM 40.5383 -111.9403 356° North 230 265 8,900 -1,080 Descending Salt Lake Center
11:18PM 40.5844 -111.9406 360° North 229 264 8,000 -1,140 Descending Salt Lake Center
11:19PM 40.6453 -111.9478 355° North 222 255 6,800 -1,200 Descending Salt Lake Center
11:20PM 40.7094 -111.9564 354° North 193 222 5,600 -960 Descending Salt Lake Center
11:21PM 40.7444 -111.9606 355° North 126 145 4,900 -660 Descending Salt Lake Center
11:22PM 40.7761 -111.9625 357° North 116 133 4,300 -600 Descending Salt Lake Center
11:24PM 40.7833 -111.9667 North  Level FlightAware Approximate